createdAt,value
2018-12-22T00:01:48.624Z,59.75
2018-12-22T00:04:16.583Z,54.08
2018-12-22T00:06:44.494Z,66.85
2018-12-22T00:09:12.459Z,47.17
2018-12-22T00:11:40.590Z,56.55
2018-12-22T00:14:08.543Z,53.40
2018-12-22T00:16:36.505Z,60.03
2018-12-22T00:19:04.423Z,49.90
2018-12-22T00:21:32.426Z,56.60
2018-12-22T00:24:00.374Z,52.80
2018-12-22T00:26:28.387Z,58.68
2018-12-22T00:28:56.317Z,53.10
2018-12-22T00:31:24.289Z,41.58
2018-12-22T00:33:52.200Z,41.73
2018-12-22T00:36:20.110Z,33.05
2018-12-22T00:38:48.069Z,36.48
2018-12-22T00:41:16.018Z,36.30
2018-12-22T00:43:43.971Z,34.23
2018-12-22T00:46:11.968Z,33.23
2018-12-22T00:48:39.977Z,37.95
2018-12-22T00:51:08.201Z,34.90
2018-12-22T00:53:36.168Z,35.78
2018-12-22T00:56:04.110Z,36.00
2018-12-22T00:58:32.020Z,31.45
2018-12-22T01:01:00.014Z,29.98
2018-12-22T01:03:27.980Z,30.85
2018-12-22T01:05:55.904Z,37.53
2018-12-22T01:08:23.831Z,37.08
2018-12-22T01:10:51.766Z,30.52
2018-12-22T01:13:19.734Z,34.45
2018-12-22T01:15:47.723Z,28.20
2018-12-22T01:18:15.643Z,33.40
2018-12-22T01:20:43.605Z,29.50
2018-12-22T01:23:11.585Z,28.62
2018-12-22T01:25:39.535Z,31.23
2018-12-22T01:28:08.641Z,26.80
2018-12-22T01:30:36.557Z,27.75
2018-12-22T01:33:04.507Z,27.90
2018-12-22T01:35:32.416Z,28.62
2018-12-22T01:38:00.394Z,25.15
2018-12-22T01:40:28.350Z,27.10
2018-12-22T01:42:56.413Z,31.12
2018-12-22T01:45:24.385Z,32.70
2018-12-22T01:47:52.330Z,28.10
2018-12-22T01:50:20.227Z,28.30
2018-12-22T01:52:48.218Z,27.25
2018-12-22T01:55:16.238Z,30.82
2018-12-22T01:57:44.150Z,29.30
2018-12-22T02:00:12.230Z,23.83
2018-12-22T02:02:40.150Z,25.00
2018-12-22T02:05:08.090Z,23.77
2018-12-22T02:07:36.094Z,28.00
2018-12-22T02:10:04.437Z,26.85
2018-12-22T02:12:32.354Z,23.98
2018-12-22T02:15:00.286Z,23.62
2018-12-22T02:17:28.194Z,24.35
2018-12-22T02:19:56.184Z,23.00
2018-12-22T02:22:24.081Z,23.55
2018-12-22T02:24:52.063Z,17.95
2018-12-22T02:27:19.981Z,21.93
2018-12-22T02:29:47.908Z,26.60
2018-12-22T02:32:18.361Z,17.90
2018-12-22T02:34:45.837Z,17.12
2018-12-22T02:37:13.733Z,20.20
2018-12-22T02:39:41.666Z,18.62
2018-12-22T02:42:09.602Z,19.15
2018-12-22T02:44:37.541Z,20.70
2018-12-22T02:47:05.478Z,19.05
2018-12-22T02:49:33.410Z,21.23
2018-12-22T02:52:01.347Z,18.98
2018-12-22T02:54:29.327Z,21.52
2018-12-22T02:56:57.317Z,19.35
2018-12-22T02:59:25.267Z,17.98
2018-12-22T03:01:53.216Z,18.23
2018-12-22T03:04:21.156Z,18.85
2018-12-22T03:06:49.090Z,18.05
2018-12-22T03:09:17.057Z,16.00
2018-12-22T03:11:45.110Z,18.27
2018-12-22T03:14:13.038Z,15.58
2018-12-22T03:16:40.975Z,17.95
2018-12-22T03:19:08.883Z,15.38
2018-12-22T03:21:36.827Z,18.23
2018-12-22T03:24:04.782Z,16.77
2018-12-22T03:26:32.693Z,15.48
2018-12-22T03:29:00.662Z,17.32
2018-12-22T03:31:28.608Z,14.85
2018-12-22T03:33:56.527Z,15.28
2018-12-22T03:36:24.458Z,11.65
2018-12-22T03:38:52.406Z,15.25
2018-12-22T03:41:20.408Z,12.95
2018-12-22T03:43:48.354Z,14.13
2018-12-22T03:46:16.319Z,16.73
2018-12-22T03:48:44.288Z,13.72
2018-12-22T03:51:12.249Z,11.85
2018-12-22T03:53:40.190Z,14.45
2018-12-22T03:56:08.135Z,13.00
2018-12-22T03:58:36.061Z,14.18
2018-12-22T04:01:04.032Z,11.55
2018-12-22T04:03:31.993Z,13.85
2018-12-22T04:05:59.960Z,12.00
2018-12-22T04:08:27.862Z,15.25
2018-12-22T04:10:55.776Z,13.20
2018-12-22T04:13:23.671Z,12.15
2018-12-22T04:15:51.596Z,17.05
2018-12-22T04:18:19.501Z,15.38
2018-12-22T04:20:47.452Z,22.85
2018-12-22T04:23:15.395Z,21.97
2018-12-22T04:25:43.352Z,23.62
2018-12-22T04:28:11.289Z,24.67
2018-12-22T04:30:39.264Z,28.87
2018-12-22T04:33:07.267Z,26.42
2018-12-22T04:35:35.190Z,22.73
2018-12-22T04:38:03.119Z,23.32
2018-12-22T04:40:31.007Z,28.02
2018-12-22T04:42:58.912Z,25.20
2018-12-22T04:45:27.046Z,24.23
2018-12-22T04:47:55.005Z,20.52
2018-12-22T04:50:22.928Z,23.55
2018-12-22T04:52:50.874Z,23.10
2018-12-22T04:55:19.998Z,33.58
2018-12-22T04:57:47.942Z,28.98
2018-12-22T05:00:15.872Z,25.25
2018-12-22T05:02:43.810Z,34.45
2018-12-22T05:05:11.743Z,34.43
2018-12-22T05:07:39.674Z,32.95
2018-12-22T05:10:07.744Z,30.40
2018-12-22T05:12:35.705Z,23.27
2018-12-22T05:15:03.818Z,27.77
2018-12-22T05:17:31.730Z,26.42
2018-12-22T05:19:59.675Z,26.48
2018-12-22T05:22:27.609Z,29.20
2018-12-22T05:24:55.544Z,24.60
2018-12-22T05:27:24.611Z,27.90
2018-12-22T05:29:52.599Z,25.15
2018-12-22T05:32:20.520Z,26.25
2018-12-22T05:34:48.460Z,30.02
2018-12-22T05:37:16.393Z,29.92
2018-12-22T05:39:44.299Z,25.68
2018-12-22T05:42:12.222Z,24.77
2018-12-22T05:44:40.151Z,30.97
2018-12-22T05:47:08.093Z,32.17
2018-12-22T05:49:36.039Z,36.60
2018-12-22T05:52:03.977Z,37.88
2018-12-22T05:54:31.948Z,40.83
2018-12-22T05:56:59.924Z,44.63
2018-12-22T05:59:27.911Z,50.43
2018-12-22T06:01:55.910Z,53.48
2018-12-22T06:04:23.855Z,43.68
2018-12-22T06:06:51.829Z,41.45
2018-12-22T06:09:19.754Z,40.08
2018-12-22T06:11:47.671Z,41.65
2018-12-22T06:14:15.620Z,44.73
2018-12-22T06:16:43.590Z,40.58
2018-12-22T06:19:11.562Z,46.73
2018-12-22T06:21:39.493Z,46.68
2018-12-22T06:24:07.425Z,43.20
2018-12-22T06:26:42.332Z,41.45
2018-12-22T06:29:11.414Z,45.00
2018-12-22T06:31:39.410Z,39.92
2018-12-22T06:34:07.453Z,43.48
2018-12-22T06:36:35.363Z,39.42
2018-12-22T06:39:05.087Z,35.63
2018-12-22T06:41:33.025Z,37.80
2018-12-22T06:44:00.991Z,40.25
2018-12-22T06:46:28.941Z,39.13
2018-12-22T06:48:56.889Z,35.20
2018-12-22T06:51:24.846Z,30.20
2018-12-22T06:53:52.749Z,33.25
2018-12-22T06:56:20.701Z,30.20
2018-12-22T06:58:48.661Z,31.93
2018-12-22T07:01:16.564Z,28.77
2018-12-22T07:03:44.515Z,32.80
2018-12-22T07:06:15.440Z,31.02
2018-12-22T07:08:43.370Z,28.10
2018-12-22T07:11:11.336Z,30.27
2018-12-22T07:13:39.321Z,29.18
2018-12-22T07:16:07.504Z,27.25
2018-12-22T07:18:35.554Z,34.00
2018-12-22T07:21:03.534Z,27.58
2018-12-22T07:23:31.469Z,35.10
2018-12-22T07:25:59.465Z,29.35
2018-12-22T07:28:27.440Z,34.75
2018-12-22T07:30:55.398Z,39.35
2018-12-22T07:33:23.327Z,32.55
2018-12-22T07:35:51.257Z,38.13
2018-12-22T07:38:19.275Z,34.10
2018-12-22T07:40:47.218Z,29.27
2018-12-22T07:43:15.210Z,23.22
2018-12-22T07:45:43.229Z,23.90
2018-12-22T07:48:11.250Z,24.80
2018-12-22T07:50:39.256Z,25.82
2018-12-22T07:53:07.276Z,27.40
2018-12-22T07:55:35.308Z,25.85
2018-12-22T07:58:03.294Z,28.98
2018-12-22T08:00:35.164Z,28.15
2018-12-22T08:03:02.547Z,30.82
2018-12-22T08:05:38.593Z,30.25
2018-12-22T08:08:01.521Z,25.17
2018-12-22T08:10:29.492Z,20.68
2018-12-22T08:12:57.547Z,23.98
2018-12-22T08:15:25.518Z,21.40
2018-12-22T08:17:53.505Z,21.05
2018-12-22T08:20:28.522Z,25.85
2018-12-22T08:22:56.532Z,21.60
2018-12-22T08:25:24.521Z,20.02
2018-12-22T08:27:52.523Z,23.73
2018-12-22T08:30:20.518Z,20.07
2018-12-22T08:32:48.468Z,21.30
2018-12-22T08:35:16.559Z,17.87
2018-12-22T08:37:44.509Z,22.17
2018-12-22T08:40:12.503Z,20.23
2018-12-22T08:42:40.452Z,21.10
2018-12-22T08:45:08.464Z,17.97
2018-12-22T08:47:36.481Z,16.40
2018-12-22T08:50:09.416Z,15.70
2018-12-22T08:52:35.415Z,15.20
2018-12-22T08:55:03.707Z,14.60
2018-12-22T08:57:31.707Z,13.43
2018-12-22T08:59:59.712Z,13.33
2018-12-22T09:02:27.737Z,12.97
2018-12-22T09:04:55.716Z,13.80
2018-12-22T09:07:23.681Z,13.47
2018-12-22T09:09:51.680Z,13.10
2018-12-22T09:12:19.644Z,13.90
2018-12-22T09:14:47.605Z,18.40
2018-12-22T09:17:15.640Z,23.80
2018-12-22T09:19:43.597Z,25.10
2018-12-22T09:22:11.530Z,28.83
2018-12-22T09:24:39.459Z,29.17
2018-12-22T09:27:07.411Z,29.87
2018-12-22T09:29:35.357Z,33.63
2018-12-22T09:32:03.327Z,34.27
2018-12-22T09:34:31.253Z,34.30
2018-12-22T09:36:59.204Z,35.10
2018-12-22T09:39:27.173Z,32.33
2018-12-22T09:41:55.113Z,31.80
2018-12-22T09:44:23.003Z,33.77
2018-12-22T09:46:50.960Z,31.57
2018-12-22T09:49:18.882Z,30.33
2018-12-22T09:51:46.833Z,33.63
2018-12-22T09:54:14.901Z,32.57
2018-12-22T09:56:42.875Z,35.17
2018-12-22T09:59:10.830Z,33.23
2018-12-22T10:01:38.732Z,32.97
2018-12-22T10:04:06.617Z,33.90
2018-12-22T10:06:34.527Z,35.45
2018-12-22T10:09:04.675Z,43.23
2018-12-22T10:11:32.694Z,41.98
2018-12-22T10:14:00.612Z,42.73
2018-12-22T10:16:28.558Z,45.60
2018-12-22T10:18:57.662Z,38.53
2018-12-22T10:21:25.723Z,43.92
2018-12-22T10:23:53.667Z,39.60
2018-12-22T10:26:21.558Z,40.25
2018-12-22T10:28:49.497Z,35.50
2018-12-22T10:31:18.112Z,34.73
2018-12-22T10:33:46.371Z,30.20
2018-12-22T10:36:14.306Z,35.10
2018-12-22T10:38:42.280Z,33.33
2018-12-22T10:41:10.238Z,34.23
2018-12-22T10:43:38.168Z,34.13
2018-12-22T10:46:06.087Z,34.20
2018-12-22T10:48:34.032Z,30.90
2018-12-22T10:51:01.990Z,27.97
2018-12-22T10:53:29.926Z,32.07
2018-12-22T10:55:57.864Z,29.50
2018-12-22T10:58:25.752Z,30.47
2018-12-22T11:00:53.770Z,27.93
2018-12-22T11:03:21.767Z,32.10
2018-12-22T11:05:49.639Z,29.67
2018-12-22T11:08:17.617Z,29.10
2018-12-22T11:10:45.533Z,30.23
2018-12-22T11:13:13.506Z,28.17
2018-12-22T11:15:41.431Z,26.50
2018-12-22T11:18:09.342Z,24.57
2018-12-22T11:20:37.328Z,24.63
2018-12-22T11:23:05.272Z,24.13
2018-12-22T11:25:33.211Z,21.80
2018-12-22T11:28:01.131Z,21.90
2018-12-22T11:30:31.059Z,21.83
2018-12-22T11:32:59.325Z,20.80
2018-12-22T11:35:27.607Z,22.30
2018-12-22T11:37:55.637Z,20.13
2018-12-22T11:40:23.647Z,20.87
2018-12-22T11:42:51.616Z,21.33
2018-12-22T11:45:19.669Z,25.13
2018-12-22T11:47:59.359Z,21.33
2018-12-22T11:50:28.146Z,24.60
2018-12-22T11:52:56.082Z,25.13
2018-12-22T11:55:24.052Z,23.53
2018-12-22T11:57:51.971Z,18.87
2018-12-22T12:00:19.937Z,20.50
2018-12-22T12:02:47.885Z,22.37
2018-12-22T12:05:15.809Z,26.53
2018-12-22T12:07:43.775Z,20.50
2018-12-22T12:10:11.726Z,21.93
2018-12-22T12:12:39.689Z,21.37
2018-12-22T12:15:10.375Z,19.90
2018-12-22T12:17:42.999Z,25.13
2018-12-22T12:20:10.902Z,22.13
2018-12-22T12:22:38.849Z,28.83
2018-12-22T12:25:06.904Z,24.23
2018-12-22T12:27:34.856Z,25.70
2018-12-22T12:30:02.782Z,20.67
2018-12-22T12:32:30.767Z,22.90
2018-12-22T12:34:58.661Z,23.70
2018-12-22T12:37:26.619Z,22.83
2018-12-22T12:39:54.581Z,20.87
2018-12-22T12:42:22.486Z,20.20
2018-12-22T12:44:50.448Z,19.43
2018-12-22T12:47:18.435Z,18.73
2018-12-22T12:49:46.410Z,20.70
2018-12-22T12:52:14.346Z,19.27
2018-12-22T12:54:42.274Z,18.20
2018-12-22T12:57:10.506Z,20.27
2018-12-22T12:59:38.494Z,16.93
2018-12-22T13:02:08.185Z,19.37
2018-12-22T13:04:36.456Z,19.13
2018-12-22T13:07:04.714Z,19.07
2018-12-22T13:09:32.658Z,18.47
2018-12-22T13:12:04.708Z,18.03
2018-12-22T13:14:32.677Z,15.77
2018-12-22T13:17:00.560Z,16.00
2018-12-22T13:19:28.536Z,15.17
2018-12-22T13:21:56.461Z,14.57
2018-12-22T13:24:24.420Z,15.43
2018-12-22T13:26:52.345Z,14.73
2018-12-22T13:29:21.333Z,14.73
2018-12-22T13:31:49.293Z,14.20
2018-12-22T13:34:17.453Z,15.70
2018-12-22T13:36:45.395Z,14.63
2018-12-22T13:39:15.531Z,15.60
2018-12-22T13:41:43.480Z,17.77
2018-12-22T13:44:11.518Z,13.73
2018-12-22T13:46:39.547Z,14.53
2018-12-22T13:49:07.811Z,17.97
2018-12-22T13:51:36.593Z,17.23
2018-12-22T13:54:04.496Z,13.10
2018-12-22T13:56:32.409Z,15.97
2018-12-22T13:59:00.376Z,15.17
2018-12-22T14:01:29.143Z,11.77
2018-12-22T14:03:57.090Z,13.40
2018-12-22T14:06:34.044Z,12.10
2018-12-22T14:09:01.954Z,14.50
2018-12-22T14:11:31.328Z,11.47
2018-12-22T14:13:59.406Z,10.83
2018-12-22T14:16:32.886Z,17.37
2018-12-22T14:19:02.738Z,13.90
2018-12-22T14:21:33.621Z,14.67
2018-12-22T14:24:10.670Z,12.13
2018-12-22T14:26:38.702Z,14.50
2018-12-22T14:29:06.642Z,11.60
2018-12-22T14:31:34.570Z,11.10
2018-12-22T14:34:04.858Z,16.27
2018-12-22T14:36:32.816Z,13.73
2018-12-22T14:39:00.802Z,15.00
2018-12-22T14:41:28.810Z,14.50
2018-12-22T14:43:56.746Z,17.37
2018-12-22T14:46:24.761Z,19.20
2018-12-22T14:48:52.778Z,20.12
2018-12-22T14:51:20.732Z,18.70
2018-12-22T14:53:48.722Z,19.03
2018-12-22T14:56:17.057Z,20.95
2018-12-22T14:58:45.122Z,20.17
2018-12-22T15:01:13.037Z,19.30
2018-12-22T15:03:41.008Z,20.07
2018-12-22T15:06:09.019Z,19.20
2018-12-22T15:08:37.017Z,19.33
2018-12-22T15:11:04.997Z,19.20
2018-12-22T15:13:32.947Z,22.60
2018-12-22T15:16:00.954Z,20.37
2018-12-22T15:18:29.118Z,23.22
2018-12-22T15:20:57.697Z,20.40
2018-12-22T15:23:25.707Z,22.32
2018-12-22T15:25:53.666Z,20.17
2018-12-22T15:28:21.729Z,21.37
2018-12-22T15:30:49.795Z,21.57
2018-12-22T15:33:17.735Z,20.37
2018-12-22T15:35:45.726Z,21.27
2018-12-22T15:38:13.679Z,22.40
2018-12-22T15:40:41.808Z,16.95
2018-12-22T15:43:09.761Z,21.75
2018-12-22T15:45:37.737Z,19.25
2018-12-22T15:48:05.709Z,23.00
2018-12-22T15:50:34.863Z,20.05
2018-12-22T15:53:02.824Z,23.42
2018-12-22T15:55:31.974Z,25.82
2018-12-22T15:58:00.034Z,24.60
2018-12-22T16:00:28.102Z,37.17
2018-12-22T16:02:56.055Z,19.15
2018-12-22T16:05:24.155Z,23.10
2018-12-22T16:07:52.255Z,22.42
2018-12-22T16:10:20.276Z,24.65
2018-12-22T16:12:48.218Z,21.52
2018-12-22T16:15:17.123Z,25.50
2018-12-22T16:17:45.082Z,26.70
2018-12-22T16:20:13.059Z,28.25
2018-12-22T16:22:42.903Z,24.85
2018-12-22T16:25:11.617Z,25.00
2018-12-22T16:27:39.996Z,23.55
2018-12-22T16:30:10.865Z,28.55
2018-12-22T16:32:38.898Z,25.80
2018-12-22T16:35:07.116Z,25.48
2018-12-22T16:37:35.091Z,24.10
2018-12-22T16:40:03.111Z,26.20
2018-12-22T16:42:31.161Z,27.10
2018-12-22T16:44:59.160Z,22.95
2018-12-22T16:47:27.152Z,27.30
2018-12-22T16:49:55.146Z,29.10
2018-12-22T16:52:23.118Z,23.92
2018-12-22T16:54:51.145Z,22.58
2018-12-22T16:57:19.143Z,27.65
2018-12-22T16:59:47.172Z,23.62
2018-12-22T17:02:19.478Z,22.40
2018-12-22T17:04:47.496Z,27.42
2018-12-22T17:07:15.451Z,25.32
2018-12-22T17:09:43.375Z,24.65
2018-12-22T17:12:11.315Z,25.92
2018-12-22T17:14:39.283Z,22.00
2018-12-22T17:17:07.441Z,20.35
2018-12-22T17:19:35.432Z,19.80
2018-12-22T17:22:18.834Z,22.87
2018-12-22T17:24:49.163Z,21.30
2018-12-22T17:27:17.207Z,20.80
2018-12-22T17:29:45.242Z,21.35
2018-12-22T17:32:13.163Z,21.95
2018-12-22T17:34:41.158Z,24.32
2018-12-22T17:37:09.158Z,23.02
2018-12-22T17:39:37.109Z,22.22
2018-12-22T17:42:05.083Z,23.27
2018-12-22T17:44:32.990Z,18.35
2018-12-22T17:47:00.959Z,17.40
2018-12-22T17:49:28.895Z,21.25
2018-12-22T17:51:56.898Z,18.32
2018-12-22T17:54:24.857Z,17.35
2018-12-22T17:56:52.814Z,17.45
2018-12-22T17:59:20.777Z,17.80
2018-12-22T18:01:48.696Z,18.87
2018-12-22T18:04:16.658Z,19.02
2018-12-22T18:06:44.663Z,16.93
2018-12-22T18:09:12.590Z,18.45
2018-12-22T18:11:40.549Z,15.70
2018-12-22T18:14:08.469Z,15.65
2018-12-22T18:16:36.417Z,13.58
2018-12-22T18:19:04.365Z,13.90
2018-12-22T18:21:32.311Z,16.75
2018-12-22T18:24:00.293Z,16.17
2018-12-22T18:26:28.272Z,15.32
2018-12-22T18:28:56.258Z,13.35
2018-12-22T18:31:24.183Z,15.30
2018-12-22T18:33:52.190Z,13.05
2018-12-22T18:36:20.174Z,11.40
2018-12-22T18:38:48.142Z,11.73
2018-12-22T18:41:16.139Z,12.23
2018-12-22T18:43:44.113Z,11.12
2018-12-22T18:46:12.102Z,10.53
2018-12-22T18:48:40.095Z,9.80
2018-12-22T18:51:08.038Z,6.65
2018-12-22T18:53:35.996Z,4.70
2018-12-22T18:56:04.055Z,5.55
2018-12-22T18:58:32.037Z,3.92
2018-12-22T19:00:59.987Z,3.72
2018-12-22T19:03:27.943Z,4.00
2018-12-22T19:05:55.891Z,2.40
2018-12-22T19:08:23.845Z,3.37
2018-12-22T19:10:56.473Z,3.08
2018-12-22T19:13:24.475Z,2.70
2018-12-22T19:15:52.489Z,3.33
2018-12-22T19:18:20.449Z,2.95
2018-12-22T19:20:49.461Z,2.00
2018-12-22T19:23:18.089Z,1.57
2018-12-22T19:25:46.069Z,2.05
2018-12-22T19:28:14.129Z,2.58
2018-12-22T19:30:44.376Z,2.45
2018-12-22T19:33:12.116Z,4.17
2018-12-22T19:35:40.110Z,3.90
2018-12-22T19:38:08.077Z,2.62
2018-12-22T19:40:36.045Z,2.12
2018-12-22T19:43:04.017Z,3.20
2018-12-22T19:45:31.995Z,1.85
2018-12-22T19:47:59.943Z,1.32
2018-12-22T19:50:27.877Z,2.92
2018-12-22T19:52:55.797Z,2.58
2018-12-22T19:55:23.746Z,2.70
2018-12-22T19:57:51.790Z,2.00
2018-12-22T20:00:19.839Z,2.52
2018-12-22T20:02:47.789Z,2.60
2018-12-22T20:05:15.745Z,3.47
2018-12-22T20:07:43.691Z,3.00
2018-12-22T20:10:11.660Z,1.67
2018-12-22T20:12:39.593Z,4.67
2018-12-22T20:15:07.567Z,4.30
2018-12-22T20:17:35.515Z,4.17
2018-12-22T20:20:03.782Z,5.45
2018-12-22T20:22:31.703Z,3.62
2018-12-22T20:24:59.674Z,3.52
2018-12-22T20:27:27.669Z,2.65
2018-12-22T20:29:55.626Z,4.20
2018-12-22T20:32:23.623Z,2.25
2018-12-22T20:34:51.682Z,1.85
2018-12-22T20:37:19.655Z,2.37
2018-12-22T20:39:47.610Z,1.57
2018-12-22T20:42:15.565Z,3.67
2018-12-22T20:44:43.553Z,2.12
2018-12-22T20:47:11.514Z,2.95
2018-12-22T20:49:46.382Z,1.30
2018-12-22T20:52:14.298Z,1.73
2018-12-22T20:54:42.250Z,0.80
2018-12-22T20:57:10.201Z,16.32
2018-12-22T20:59:38.130Z,18.70
2018-12-22T21:02:06.100Z,9.58
2018-12-22T21:04:34.157Z,18.75
2018-12-22T21:07:02.081Z,17.55
2018-12-22T21:09:29.981Z,16.82
2018-12-22T21:11:57.954Z,18.17
2018-12-22T21:14:25.886Z,19.98
2018-12-22T21:16:53.872Z,19.55
2018-12-22T21:19:21.841Z,18.65
2018-12-22T21:21:49.779Z,18.12
2018-12-22T21:24:17.782Z,19.20
2018-12-22T21:26:45.834Z,19.12
2018-12-22T21:29:13.782Z,17.00
2018-12-22T21:31:41.746Z,19.10
2018-12-22T21:34:09.678Z,19.77
2018-12-22T21:36:37.636Z,20.23
2018-12-22T21:39:06.022Z,19.20
2018-12-22T21:41:33.966Z,16.02
2018-12-22T21:44:01.874Z,19.10
2018-12-22T21:46:29.800Z,18.42
2018-12-22T21:48:57.801Z,17.95
2018-12-22T21:51:25.759Z,20.88
2018-12-22T21:53:53.703Z,17.05
2018-12-22T21:56:21.663Z,16.35
2018-12-22T21:58:49.639Z,17.57
2018-12-22T22:01:17.574Z,16.70
2018-12-22T22:03:45.530Z,13.75
2018-12-22T22:06:13.483Z,19.80
2018-12-22T22:08:41.426Z,16.90
2018-12-22T22:11:09.389Z,16.85
2018-12-22T22:13:37.300Z,18.77
2018-12-22T22:16:05.280Z,20.57
2018-12-22T22:18:33.206Z,18.40
2018-12-22T22:21:01.164Z,18.62
2018-12-22T22:23:30.142Z,15.45
2018-12-22T22:25:58.078Z,18.55
2018-12-22T22:28:26.006Z,19.27
2018-12-22T22:30:53.943Z,17.40
2018-12-22T22:33:21.911Z,17.60
2018-12-22T22:35:49.823Z,18.67
2018-12-22T22:38:17.795Z,21.68
2018-12-22T22:40:45.830Z,19.60
2018-12-22T22:43:13.813Z,19.57
2018-12-22T22:45:41.758Z,21.30
2018-12-22T22:48:09.732Z,17.15
2018-12-22T22:50:37.674Z,15.88
2018-12-22T22:53:05.708Z,16.73
2018-12-22T22:55:33.709Z,16.60
2018-12-22T22:58:01.621Z,20.00
2018-12-22T23:00:35.812Z,19.00
2018-12-22T23:03:04.139Z,18.98
2018-12-22T23:05:32.123Z,17.37
2018-12-22T23:08:00.216Z,21.37
2018-12-22T23:10:28.142Z,20.75
2018-12-22T23:12:56.205Z,21.00
2018-12-22T23:15:24.114Z,19.05
2018-12-22T23:17:52.082Z,22.22
2018-12-22T23:20:19.995Z,21.73
2018-12-22T23:22:47.890Z,22.90
2018-12-22T23:25:15.809Z,20.97
2018-12-22T23:27:43.822Z,24.10
2018-12-22T23:30:11.889Z,22.50
2018-12-22T23:32:39.855Z,20.00
2018-12-22T23:35:07.797Z,25.30
2018-12-22T23:37:35.767Z,24.23
2018-12-22T23:40:03.884Z,24.55
2018-12-22T23:42:31.842Z,23.07
2018-12-22T23:44:59.776Z,20.82
2018-12-22T23:47:27.697Z,21.65
2018-12-22T23:49:55.609Z,22.45
2018-12-22T23:52:23.547Z,23.67
2018-12-22T23:54:51.487Z,21.77
2018-12-22T23:57:19.410Z,17.40
2018-12-22T23:59:47.393Z,17.90
